sensor_id;sensor_type;location;lat;lon;timestamp;temperature;humidity
18506;DHT22;9382;53.242;10.438;2023-01-20T00:00:05;-0.40;99.90
18506;DHT22;9382;53.242;10.438;2023-01-20T00:02:32;-0.40;99.90
18506;DHT22;9382;53.242;10.438;2023-01-20T00:05:00;-0.40;99.90
18506;DHT22;9382;53.242;10.438;2023-01-20T00:07:27;-0.30;99.90
18506;DHT22;9382;53.242;10.438;2023-01-20T00:09:53;-0.20;99.90
18506;DHT22;9382;53.242;10.438;2023-01-20T00:12:20;-0.10;99.90
18506;DHT22;9382;53.242;10.438;2023-01-20T00:14:47;-0.10;99.90
18506;DHT22;9382;53.242;10.438;2023-01-20T00:17:13;0.00;99.90
18506;DHT22;9382;53.242;10.438;2023-01-20T00:19:40;0.00;99.90
18506;DHT22;9382;53.242;10.438;2023-01-20T00:22:08;0.10;99.90
18506;DHT22;9382;53.242;10.438;2023-01-20T00:24:35;0.20;99.90
18506;DHT22;9382;53.242;10.438;2023-01-20T00:27:02;0.20;99.90
18506;DHT22;9382;53.242;10.438;2023-01-20T00:29:29;0.30;99.90
18506;DHT22;9382;53.242;10.438;2023-01-20T00:31:55;0.40;99.90
18506;DHT22;9382;53.242;10.438;2023-01-20T00:34:22;0.50;99.90
18506;DHT22;9382;53.242;10.438;2023-01-20T00:36:49;0.50;99.90
18506;DHT22;9382;53.242;10.438;2023-01-20T00:39:17;0.60;99.90
18506;DHT22;9382;53.242;10.438;2023-01-20T00:41:44;0.70;99.90
18506;DHT22;9382;53.242;10.438;2023-01-20T00:44:10;0.70;99.90
18506;DHT22;9382;53.242;10.438;2023-01-20T00:46:37;0.70;99.90
18506;DHT22;9382;53.242;10.438;2023-01-20T00:49:04;0.80;99.90
18506;DHT22;9382;53.242;10.438;2023-01-20T00:51:30;0.80;99.90
18506;DHT22;9382;53.242;10.438;2023-01-20T00:53:57;0.80;99.90
18506;DHT22;9382;53.242;10.438;2023-01-20T00:56:25;0.80;99.90
18506;DHT22;9382;53.242;10.438;2023-01-20T00:58:52;0.80;99.90
18506;DHT22;9382;53.242;10.438;2023-01-20T01:01:19;0.90;99.90
18506;DHT22;9382;53.242;10.438;2023-01-20T01:03:46;0.90;99.90
18506;DHT22;9382;53.242;10.438;2023-01-20T01:06:14;0.90;99.90
18506;DHT22;9382;53.242;10.438;2023-01-20T01:08:42;1.00;99.90
18506;DHT22;9382;53.242;10.438;2023-01-20T01:11:10;1.10;99.90
18506;DHT22;9382;53.242;10.438;2023-01-20T01:13:38;1.00;99.90
18506;DHT22;9382;53.242;10.438;2023-01-20T01:16:09;1.00;99.90
18506;DHT22;9382;53.242;10.438;2023-01-20T01:18:36;1.00;99.90
18506;DHT22;9382;53.242;10.438;2023-01-20T01:21:06;1.10;99.90
18506;DHT22;9382;53.242;10.438;2023-01-20T01:23:32;1.20;99.90
18506;DHT22;9382;53.242;10.438;2023-01-20T01:25:59;1.20;99.90
18506;DHT22;9382;53.242;10.438;2023-01-20T01:28:26;1.20;99.90
18506;DHT22;9382;53.242;10.438;2023-01-20T01:30:54;1.20;99.90
18506;DHT22;9382;53.242;10.438;2023-01-20T01:33:21;1.20;99.90
18506;DHT22;9382;53.242;10.438;2023-01-20T01:35:54;1.20;99.90
18506;DHT22;9382;53.242;10.438;2023-01-20T01:38:21;1.30;99.90
18506;DHT22;9382;53.242;10.438;2023-01-20T01:40:48;1.30;99.90
18506;DHT22;9382;53.242;10.438;2023-01-20T01:43:21;1.30;99.90
18506;DHT22;9382;53.242;10.438;2023-01-20T01:45:48;1.30;99.90
18506;DHT22;9382;53.242;10.438;2023-01-20T01:48:18;1.30;99.90
18506;DHT22;9382;53.242;10.438;2023-01-20T01:50:48;1.50;99.90
18506;DHT22;9382;53.242;10.438;2023-01-20T01:53:17;1.30;99.90
18506;DHT22;9382;53.242;10.438;2023-01-20T01:55:47;1.30;99.90
18506;DHT22;9382;53.242;10.438;2023-01-20T01:58:18;1.30;99.90
18506;DHT22;9382;53.242;10.438;2023-01-20T02:00:47;1.30;99.90
18506;DHT22;9382;53.242;10.438;2023-01-20T02:03:15;1.20;99.90
18506;DHT22;9382;53.242;10.438;2023-01-20T02:05:42;1.20;99.90
18506;DHT22;9382;53.242;10.438;2023-01-20T02:08:10;1.20;99.90
18506;DHT22;9382;53.242;10.438;2023-01-20T02:10:37;1.20;99.90
18506;DHT22;9382;53.242;10.438;2023-01-20T02:13:04;1.20;99.90
18506;DHT22;9382;53.242;10.438;2023-01-20T02:15:37;1.20;99.90
18506;DHT22;9382;53.242;10.438;2023-01-20T02:18:16;1.10;99.90
18506;DHT22;9382;53.242;10.438;2023-01-20T02:21:04;1.10;99.90
18506;DHT22;9382;53.242;10.438;2023-01-20T02:23:48;1.00;99.90
18506;DHT22;9382;53.242;10.438;2023-01-20T02:26:38;1.00;99.90
18506;DHT22;9382;53.242;10.438;2023-01-20T02:29:34;1.00;99.90
18506;DHT22;9382;53.242;10.438;2023-01-20T02:32:16;1.00;99.90
18506;DHT22;9382;53.242;10.438;2023-01-20T02:34:50;1.00;99.90
18506;DHT22;9382;53.242;10.438;2023-01-20T02:37:23;1.00;99.90
18506;DHT22;9382;53.242;10.438;2023-01-20T02:39:57;1.00;99.90
18506;DHT22;9382;53.242;10.438;2023-01-20T02:42:31;1.00;99.90
18506;DHT22;9382;53.242;10.438;2023-01-20T02:45:07;1.00;99.90
18506;DHT22;9382;53.242;10.438;2023-01-20T02:47:42;0.90;99.90
18506;DHT22;9382;53.242;10.438;2023-01-20T02:50:12;0.90;99.90
18506;DHT22;9382;53.242;10.438;2023-01-20T02:52:44;0.90;99.90
18506;DHT22;9382;53.242;10.438;2023-01-20T02:55:20;1.00;99.90
18506;DHT22;9382;53.242;10.438;2023-01-20T02:57:50;1.00;99.90
18506;DHT22;9382;53.242;10.438;2023-01-20T03:00:23;1.00;99.90
18506;DHT22;9382;53.242;10.438;2023-01-20T03:02:53;1.10;99.90
18506;DHT22;9382;53.242;10.438;2023-01-20T03:05:25;1.10;99.90
18506;DHT22;9382;53.242;10.438;2023-01-20T03:07:54;1.10;99.90
18506;DHT22;9382;53.242;10.438;2023-01-20T03:10:26;1.00;99.90
18506;DHT22;9382;53.242;10.438;2023-01-20T03:12:59;1.00;99.90
18506;DHT22;9382;53.242;10.438;2023-01-20T03:15:34;1.10;99.90
18506;DHT22;9382;53.242;10.438;2023-01-20T03:18:04;1.10;99.90
18506;DHT22;9382;53.242;10.438;2023-01-20T03:20:31;1.20;99.90
18506;DHT22;9382;53.242;10.438;2023-01-20T03:22:57;1.10;99.90
18506;DHT22;9382;53.242;10.438;2023-01-20T03:25:25;1.10;99.90
18506;DHT22;9382;53.242;10.438;2023-01-20T03:27:52;1.00;99.90
18506;DHT22;9382;53.242;10.438;2023-01-20T03:30:19;1.00;99.90
18506;DHT22;9382;53.242;10.438;2023-01-20T03:32:47;0.90;99.90
18506;DHT22;9382;53.242;10.438;2023-01-20T03:35:16;0.90;99.90
18506;DHT22;9382;53.242;10.438;2023-01-20T03:37:44;0.80;99.90
18506;DHT22;9382;53.242;10.438;2023-01-20T03:40:12;0.60;99.90
18506;DHT22;9382;53.242;10.438;2023-01-20T03:42:44;0.60;99.90
18506;DHT22;9382;53.242;10.438;2023-01-20T03:45:17;0.60;99.90
18506;DHT22;9382;53.242;10.438;2023-01-20T03:47:55;0.60;99.90
18506;DHT22;9382;53.242;10.438;2023-01-20T03:50:33;0.60;99.90
18506;DHT22;9382;53.242;10.438;2023-01-20T03:53:07;0.70;99.90
18506;DHT22;9382;53.242;10.438;2023-01-20T03:55:41;0.70;99.90
18506;DHT22;9382;53.242;10.438;2023-01-20T03:58:11;0.70;99.90
18506;DHT22;9382;53.242;10.438;2023-01-20T04:00:43;0.70;99.90
18506;DHT22;9382;53.242;10.438;2023-01-20T04:03:15;0.70;99.90
18506;DHT22;9382;53.242;10.438;2023-01-20T04:05:45;0.70;99.90
18506;DHT22;9382;53.242;10.438;2023-01-20T04:08:15;0.70;99.90
18506;DHT22;9382;53.242;10.438;2023-01-20T04:10:45;0.70;99.90
18506;DHT22;9382;53.242;10.438;2023-01-20T04:13:13;0.80;99.90
18506;DHT22;9382;53.242;10.438;2023-01-20T04:15:42;0.80;99.90
18506;DHT22;9382;53.242;10.438;2023-01-20T04:18:11;0.90;99.90
18506;DHT22;9382;53.242;10.438;2023-01-20T04:20:38;0.90;99.90
18506;DHT22;9382;53.242;10.438;2023-01-20T04:23:07;0.90;99.90
18506;DHT22;9382;53.242;10.438;2023-01-20T04:25:38;0.90;99.90
18506;DHT22;9382;53.242;10.438;2023-01-20T04:28:04;0.90;99.90
18506;DHT22;9382;53.242;10.438;2023-01-20T04:30:31;0.90;99.90
18506;DHT22;9382;53.242;10.438;2023-01-20T04:32:58;0.90;99.90
18506;DHT22;9382;53.242;10.438;2023-01-20T04:35:25;0.90;99.90
18506;DHT22;9382;53.242;10.438;2023-01-20T04:37:52;0.90;99.90
18506;DHT22;9382;53.242;10.438;2023-01-20T04:40:20;0.90;99.90
18506;DHT22;9382;53.242;10.438;2023-01-20T04:42:47;0.90;99.90
18506;DHT22;9382;53.242;10.438;2023-01-20T04:45:14;1.00;99.90
18506;DHT22;9382;53.242;10.438;2023-01-20T04:47:41;1.00;99.90
18506;DHT22;9382;53.242;10.438;2023-01-20T04:50:10;1.00;99.90
18506;DHT22;9382;53.242;10.438;2023-01-20T04:52:37;1.10;99.90
18506;DHT22;9382;53.242;10.438;2023-01-20T04:55:04;1.00;99.90
18506;DHT22;9382;53.242;10.438;2023-01-20T04:57:32;1.10;99.90
18506;DHT22;9382;53.242;10.438;2023-01-20T04:59:59;1.00;99.90
18506;DHT22;9382;53.242;10.438;2023-01-20T05:02:26;1.00;99.90
18506;DHT22;9382;53.242;10.438;2023-01-20T05:04:53;1.00;99.90
18506;DHT22;9382;53.242;10.438;2023-01-20T05:07:19;1.00;99.90
18506;DHT22;9382;53.242;10.438;2023-01-20T05:09:46;1.00;99.90
18506;DHT22;9382;53.242;10.438;2023-01-20T05:12:13;1.00;99.90
18506;DHT22;9382;53.242;10.438;2023-01-20T05:14:41;1.00;99.90
18506;DHT22;9382;53.242;10.438;2023-01-20T05:17:08;0.90;99.90
18506;DHT22;9382;53.242;10.438;2023-01-20T05:19:34;0.90;99.90
18506;DHT22;9382;53.242;10.438;2023-01-20T05:22:01;0.90;99.90
18506;DHT22;9382;53.242;10.438;2023-01-20T05:24:28;0.90;99.90
18506;DHT22;9382;53.242;10.438;2023-01-20T05:26:55;1.00;99.90
18506;DHT22;9382;53.242;10.438;2023-01-20T05:29:25;1.00;99.90
18506;DHT22;9382;53.242;10.438;2023-01-20T05:31:53;1.00;99.90
18506;DHT22;9382;53.242;10.438;2023-01-20T05:34:20;1.00;99.90
18506;DHT22;9382;53.242;10.438;2023-01-20T05:36:50;1.00;99.90
18506;DHT22;9382;53.242;10.438;2023-01-20T05:39:17;1.00;99.90
18506;DHT22;9382;53.242;10.438;2023-01-20T05:41:44;0.90;99.90
18506;DHT22;9382;53.242;10.438;2023-01-20T05:44:11;0.90;99.90
18506;DHT22;9382;53.242;10.438;2023-01-20T05:46:37;0.80;99.90
18506;DHT22;9382;53.242;10.438;2023-01-20T05:49:05;0.80;99.90
18506;DHT22;9382;53.242;10.438;2023-01-20T05:51:32;0.70;99.90
18506;DHT22;9382;53.242;10.438;2023-01-20T05:53:59;0.70;99.90
18506;DHT22;9382;53.242;10.438;2023-01-20T05:56:29;0.70;99.90
18506;DHT22;9382;53.242;10.438;2023-01-20T05:58:56;0.60;99.90
18506;DHT22;9382;53.242;10.438;2023-01-20T06:01:22;0.60;99.90
18506;DHT22;9382;53.242;10.438;2023-01-20T06:03:49;0.60;99.90
18506;DHT22;9382;53.242;10.438;2023-01-20T06:06:17;0.50;99.90
18506;DHT22;9382;53.242;10.438;2023-01-20T06:08:44;0.50;99.90
18506;DHT22;9382;53.242;10.438;2023-01-20T06:11:11;0.60;99.90
18506;DHT22;9382;53.242;10.438;2023-01-20T06:13:39;0.60;99.90
18506;DHT22;9382;53.242;10.438;2023-01-20T06:16:06;0.60;99.90
18506;DHT22;9382;53.242;10.438;2023-01-20T06:18:33;0.60;99.90
18506;DHT22;9382;53.242;10.438;2023-01-20T06:21:00;0.60;99.90
18506;DHT22;9382;53.242;10.438;2023-01-20T06:23:28;0.70;99.90
18506;DHT22;9382;53.242;10.438;2023-01-20T06:25:59;0.70;99.90
18506;DHT22;9382;53.242;10.438;2023-01-20T06:28:26;0.70;99.90
18506;DHT22;9382;53.242;10.438;2023-01-20T06:30:59;0.70;99.90
18506;DHT22;9382;53.242;10.438;2023-01-20T06:33:26;0.70;99.90
18506;DHT22;9382;53.242;10.438;2023-01-20T06:35:53;0.70;99.90
18506;DHT22;9382;53.242;10.438;2023-01-20T06:38:20;0.80;99.90
18506;DHT22;9382;53.242;10.438;2023-01-20T06:40:49;0.80;99.90
18506;DHT22;9382;53.242;10.438;2023-01-20T06:43:15;0.90;99.90
18506;DHT22;9382;53.242;10.438;2023-01-20T06:45:42;0.90;99.90
18506;DHT22;9382;53.242;10.438;2023-01-20T06:48:09;0.80;99.90
18506;DHT22;9382;53.242;10.438;2023-01-20T06:50:35;0.70;99.90
18506;DHT22;9382;53.242;10.438;2023-01-20T06:53:02;0.70;99.90
18506;DHT22;9382;53.242;10.438;2023-01-20T06:55:29;0.60;99.90
18506;DHT22;9382;53.242;10.438;2023-01-20T06:57:57;0.60;99.90
18506;DHT22;9382;53.242;10.438;2023-01-20T07:00:24;0.70;99.90
18506;DHT22;9382;53.242;10.438;2023-01-20T07:02:50;0.80;99.90
18506;DHT22;9382;53.242;10.438;2023-01-20T07:05:17;0.80;99.90
18506;DHT22;9382;53.242;10.438;2023-01-20T07:07:44;0.80;99.90
18506;DHT22;9382;53.242;10.438;2023-01-20T07:10:11;0.80;99.90
18506;DHT22;9382;53.242;10.438;2023-01-20T07:12:38;0.70;99.90
18506;DHT22;9382;53.242;10.438;2023-01-20T07:15:07;0.60;99.90
18506;DHT22;9382;53.242;10.438;2023-01-20T07:17:34;0.60;99.90
18506;DHT22;9382;53.242;10.438;2023-01-20T07:20:01;0.50;99.90
18506;DHT22;9382;53.242;10.438;2023-01-20T07:22:28;0.50;99.90
18506;DHT22;9382;53.242;10.438;2023-01-20T07:24:55;0.50;99.90
18506;DHT22;9382;53.242;10.438;2023-01-20T07:27:21;0.60;99.90
18506;DHT22;9382;53.242;10.438;2023-01-20T07:29:48;0.60;99.90
18506;DHT22;9382;53.242;10.438;2023-01-20T07:32:16;0.60;99.90
18506;DHT22;9382;53.242;10.438;2023-01-20T07:34:43;0.70;99.90
18506;DHT22;9382;53.242;10.438;2023-01-20T07:37:10;0.80;99.90
18506;DHT22;9382;53.242;10.438;2023-01-20T07:39:36;0.80;99.90
18506;DHT22;9382;53.242;10.438;2023-01-20T07:42:03;0.80;99.90
18506;DHT22;9382;53.242;10.438;2023-01-20T07:44:31;0.80;99.90
18506;DHT22;9382;53.242;10.438;2023-01-20T07:46:58;0.80;99.90
18506;DHT22;9382;53.242;10.438;2023-01-20T07:49:26;0.70;99.90
18506;DHT22;9382;53.242;10.438;2023-01-20T07:51:53;0.60;99.90
18506;DHT22;9382;53.242;10.438;2023-01-20T07:54:20;0.40;99.90
18506;DHT22;9382;53.242;10.438;2023-01-20T07:56:47;0.40;99.90
18506;DHT22;9382;53.242;10.438;2023-01-20T07:59:13;0.40;99.90
18506;DHT22;9382;53.242;10.438;2023-01-20T08:01:41;0.40;99.90
18506;DHT22;9382;53.242;10.438;2023-01-20T08:04:08;0.40;99.90
18506;DHT22;9382;53.242;10.438;2023-01-20T08:06:38;0.40;99.90
18506;DHT22;9382;53.242;10.438;2023-01-20T08:09:05;0.30;99.90
18506;DHT22;9382;53.242;10.438;2023-01-20T08:11:36;0.30;99.90
18506;DHT22;9382;53.242;10.438;2023-01-20T08:14:03;0.30;99.90
18506;DHT22;9382;53.242;10.438;2023-01-20T08:16:30;0.40;99.90
18506;DHT22;9382;53.242;10.438;2023-01-20T08:18:57;0.30;99.90
18506;DHT22;9382;53.242;10.438;2023-01-20T08:21:26;0.40;99.90
18506;DHT22;9382;53.242;10.438;2023-01-20T08:23:55;0.40;99.90
18506;DHT22;9382;53.242;10.438;2023-01-20T08:26:23;0.40;99.90
18506;DHT22;9382;53.242;10.438;2023-01-20T08:28:52;0.40;99.90
18506;DHT22;9382;53.242;10.438;2023-01-20T08:31:22;0.40;99.90
18506;DHT22;9382;53.242;10.438;2023-01-20T08:33:51;0.40;99.90
18506;DHT22;9382;53.242;10.438;2023-01-20T08:36:21;0.40;99.90
18506;DHT22;9382;53.242;10.438;2023-01-20T08:38:49;0.50;99.90
18506;DHT22;9382;53.242;10.438;2023-01-20T08:41:18;0.60;99.90
18506;DHT22;9382;53.242;10.438;2023-01-20T08:43:46;0.60;99.90
18506;DHT22;9382;53.242;10.438;2023-01-20T08:46:15;0.60;99.90
18506;DHT22;9382;53.242;10.438;2023-01-20T08:48:42;0.70;99.90
18506;DHT22;9382;53.242;10.438;2023-01-20T08:51:11;0.70;99.90
18506;DHT22;9382;53.242;10.438;2023-01-20T08:53:39;0.70;99.90
18506;DHT22;9382;53.242;10.438;2023-01-20T08:56:07;0.70;99.90
18506;DHT22;9382;53.242;10.438;2023-01-20T08:58:35;0.70;99.90
18506;DHT22;9382;53.242;10.438;2023-01-20T09:01:07;0.70;99.90
18506;DHT22;9382;53.242;10.438;2023-01-20T09:03:35;0.80;99.90
18506;DHT22;9382;53.242;10.438;2023-01-20T09:06:02;0.80;99.90
18506;DHT22;9382;53.242;10.438;2023-01-20T09:08:29;0.80;99.90
18506;DHT22;9382;53.242;10.438;2023-01-20T09:11:01;0.70;99.90
18506;DHT22;9382;53.242;10.438;2023-01-20T09:13:28;0.70;99.90
18506;DHT22;9382;53.242;10.438;2023-01-20T09:15:56;0.70;99.90
18506;DHT22;9382;53.242;10.438;2023-01-20T09:18:22;0.70;99.90
18506;DHT22;9382;53.242;10.438;2023-01-20T09:20:49;0.70;99.90
18506;DHT22;9382;53.242;10.438;2023-01-20T09:23:16;0.70;99.90
18506;DHT22;9382;53.242;10.438;2023-01-20T09:25:43;0.80;99.90
18506;DHT22;9382;53.242;10.438;2023-01-20T09:28:10;0.70;99.90
18506;DHT22;9382;53.242;10.438;2023-01-20T09:30:38;0.80;99.90
18506;DHT22;9382;53.242;10.438;2023-01-20T09:33:08;0.80;99.90
18506;DHT22;9382;53.242;10.438;2023-01-20T09:35:35;0.80;99.90
18506;DHT22;9382;53.242;10.438;2023-01-20T09:38:02;0.80;99.90
18506;DHT22;9382;53.242;10.438;2023-01-20T09:40:52;0.90;99.90
18506;DHT22;9382;53.242;10.438;2023-01-20T09:43:46;1.10;99.90
18506;DHT22;9382;53.242;10.438;2023-01-20T09:46:29;1.20;99.90
18506;DHT22;9382;53.242;10.438;2023-01-20T09:49:06;1.30;99.90
18506;DHT22;9382;53.242;10.438;2023-01-20T09:51:59;1.20;99.90
18506;DHT22;9382;53.242;10.438;2023-01-20T09:54:49;1.40;99.90
18506;DHT22;9382;53.242;10.438;2023-01-20T09:57:19;1.30;99.90
18506;DHT22;9382;53.242;10.438;2023-01-20T09:59:49;1.40;99.90
18506;DHT22;9382;53.242;10.438;2023-01-20T10:02:21;1.50;99.90
18506;DHT22;9382;53.242;10.438;2023-01-20T10:04:53;1.50;99.90
18506;DHT22;9382;53.242;10.438;2023-01-20T10:07:28;1.50;99.90
18506;DHT22;9382;53.242;10.438;2023-01-20T10:09:57;1.60;99.90
18506;DHT22;9382;53.242;10.438;2023-01-20T10:12:30;1.60;99.90
18506;DHT22;9382;53.242;10.438;2023-01-20T10:14:59;1.60;99.90
18506;DHT22;9382;53.242;10.438;2023-01-20T10:17:33;1.60;99.90
18506;DHT22;9382;53.242;10.438;2023-01-20T10:20:08;1.60;99.90
18506;DHT22;9382;53.242;10.438;2023-01-20T10:22:41;1.60;99.90
18506;DHT22;9382;53.242;10.438;2023-01-20T10:25:14;1.80;99.90
18506;DHT22;9382;53.242;10.438;2023-01-20T10:27:47;2.10;99.90
18506;DHT22;9382;53.242;10.438;2023-01-20T10:30:16;2.40;99.90
18506;DHT22;9382;53.242;10.438;2023-01-20T10:32:47;2.60;99.90
18506;DHT22;9382;53.242;10.438;2023-01-20T10:35:21;2.80;99.90
18506;DHT22;9382;53.242;10.438;2023-01-20T10:37:51;2.80;99.90
18506;DHT22;9382;53.242;10.438;2023-01-20T10:40:30;2.90;99.90
18506;DHT22;9382;53.242;10.438;2023-01-20T10:43:00;3.10;99.90
18506;DHT22;9382;53.242;10.438;2023-01-20T10:45:37;3.10;99.90
18506;DHT22;9382;53.242;10.438;2023-01-20T10:48:16;3.20;99.90
18506;DHT22;9382;53.242;10.438;2023-01-20T10:50:53;3.40;99.90
18506;DHT22;9382;53.242;10.438;2023-01-20T10:53:33;3.70;99.90
18506;DHT22;9382;53.242;10.438;2023-01-20T10:56:22;3.90;99.90
18506;DHT22;9382;53.242;10.438;2023-01-20T10:58:51;4.20;99.90
18506;DHT22;9382;53.242;10.438;2023-01-20T11:01:18;4.40;99.90
18506;DHT22;9382;53.242;10.438;2023-01-20T11:03:47;4.60;99.90
18506;DHT22;9382;53.242;10.438;2023-01-20T11:06:19;4.80;99.90
18506;DHT22;9382;53.242;10.438;2023-01-20T11:08:47;4.90;99.90
18506;DHT22;9382;53.242;10.438;2023-01-20T11:11:16;5.00;99.90
18506;DHT22;9382;53.242;10.438;2023-01-20T11:13:44;5.00;99.90
18506;DHT22;9382;53.242;10.438;2023-01-20T11:16:15;4.80;99.90
18506;DHT22;9382;53.242;10.438;2023-01-20T11:18:54;4.60;99.90
18506;DHT22;9382;53.242;10.438;2023-01-20T11:21:24;4.30;99.90
18506;DHT22;9382;53.242;10.438;2023-01-20T11:23:53;4.10;99.90
18506;DHT22;9382;53.242;10.438;2023-01-20T11:26:22;4.00;99.90
18506;DHT22;9382;53.242;10.438;2023-01-20T11:28:55;4.00;99.90
18506;DHT22;9382;53.242;10.438;2023-01-20T11:31:35;4.00;99.90
18506;DHT22;9382;53.242;10.438;2023-01-20T11:34:19;4.00;99.90
18506;DHT22;9382;53.242;10.438;2023-01-20T11:36:48;4.00;99.90
18506;DHT22;9382;53.242;10.438;2023-01-20T11:39:25;4.00;99.90
18506;DHT22;9382;53.242;10.438;2023-01-20T11:42:09;4.00;99.90
18506;DHT22;9382;53.242;10.438;2023-01-20T11:44:41;3.80;99.90
18506;DHT22;9382;53.242;10.438;2023-01-20T11:47:20;3.70;99.90
18506;DHT22;9382;53.242;10.438;2023-01-20T11:53:15;3.80;99.90
18506;DHT22;9382;53.242;10.438;2023-01-20T11:55:48;3.80;99.90
18506;DHT22;9382;53.242;10.438;2023-01-20T11:58:17;3.80;99.90
18506;DHT22;9382;53.242;10.438;2023-01-20T12:00:45;3.80;99.90
18506;DHT22;9382;53.242;10.438;2023-01-20T12:03:38;3.80;99.90
18506;DHT22;9382;53.242;10.438;2023-01-20T12:06:13;3.90;99.90
18506;DHT22;9382;53.242;10.438;2023-01-20T12:08:47;4.10;99.90
18506;DHT22;9382;53.242;10.438;2023-01-20T12:11:18;4.30;99.90
18506;DHT22;9382;53.242;10.438;2023-01-20T12:13:59;4.50;99.90
18506;DHT22;9382;53.242;10.438;2023-01-20T12:16:46;4.80;99.90
18506;DHT22;9382;53.242;10.438;2023-01-20T12:19:17;5.00;99.90
18506;DHT22;9382;53.242;10.438;2023-01-20T12:21:50;5.10;99.90
18506;DHT22;9382;53.242;10.438;2023-01-20T12:24:22;5.50;99.90
18506;DHT22;9382;53.242;10.438;2023-01-20T12:26:51;6.40;99.90
18506;DHT22;9382;53.242;10.438;2023-01-20T12:29:20;7.40;99.90
18506;DHT22;9382;53.242;10.438;2023-01-20T12:31:49;8.20;99.90
18506;DHT22;9382;53.242;10.438;2023-01-20T12:34:19;9.20;99.90
18506;DHT22;9382;53.242;10.438;2023-01-20T12:37:05;10.10;99.90
18506;DHT22;9382;53.242;10.438;2023-01-20T12:42:51;11.40;99.90
18506;DHT22;9382;53.242;10.438;2023-01-20T12:45:29;12.10;99.90
18506;DHT22;9382;53.242;10.438;2023-01-20T12:48:13;12.40;99.90
18506;DHT22;9382;53.242;10.438;2023-01-20T12:50:52;12.50;99.90
18506;DHT22;9382;53.242;10.438;2023-01-20T12:53:29;12.70;99.90
18506;DHT22;9382;53.242;10.438;2023-01-20T12:56:12;13.10;99.90
18506;DHT22;9382;53.242;10.438;2023-01-20T12:58:49;12.30;99.90
18506;DHT22;9382;53.242;10.438;2023-01-20T13:01:41;11.10;99.90
18506;DHT22;9382;53.242;10.438;2023-01-20T13:04:51;10.80;99.90
18506;DHT22;9382;53.242;10.438;2023-01-20T13:07:39;10.60;99.90
18506;DHT22;9382;53.242;10.438;2023-01-20T13:10:24;10.50;99.90
18506;DHT22;9382;53.242;10.438;2023-01-20T13:12:58;10.00;99.90
18506;DHT22;9382;53.242;10.438;2023-01-20T13:15:32;9.20;99.90
18506;DHT22;9382;53.242;10.438;2023-01-20T13:18:18;9.40;99.90
18506;DHT22;9382;53.242;10.438;2023-01-20T13:20:47;10.50;99.90
18506;DHT22;9382;53.242;10.438;2023-01-20T13:23:17;11.70;99.90
18506;DHT22;9382;53.242;10.438;2023-01-20T13:25:46;12.60;99.90
18506;DHT22;9382;53.242;10.438;2023-01-20T13:28:17;13.00;99.90
18506;DHT22;9382;53.242;10.438;2023-01-20T13:30:47;13.10;99.90
18506;DHT22;9382;53.242;10.438;2023-01-20T13:33:30;13.40;99.90
18506;DHT22;9382;53.242;10.438;2023-01-20T13:35:57;13.70;99.90
18506;DHT22;9382;53.242;10.438;2023-01-20T13:38:25;14.00;99.90
18506;DHT22;9382;53.242;10.438;2023-01-20T13:40:56;14.40;99.90
18506;DHT22;9382;53.242;10.438;2023-01-20T13:43:57;14.70;99.90
18506;DHT22;9382;53.242;10.438;2023-01-20T13:46:52;14.50;99.90
18506;DHT22;9382;53.242;10.438;2023-01-20T13:49:22;14.10;99.90
18506;DHT22;9382;53.242;10.438;2023-01-20T13:51:49;13.90;99.90
18506;DHT22;9382;53.242;10.438;2023-01-20T13:54:41;13.70;99.90
18506;DHT22;9382;53.242;10.438;2023-01-20T14:00:16;11.50;99.90
18506;DHT22;9382;53.242;10.438;2023-01-20T14:02:46;10.00;99.90
18506;DHT22;9382;53.242;10.438;2023-01-20T14:05:26;8.90;99.90
18506;DHT22;9382;53.242;10.438;2023-01-20T14:07:54;7.90;99.90
18506;DHT22;9382;53.242;10.438;2023-01-20T14:10:21;7.10;99.90
18506;DHT22;9382;53.242;10.438;2023-01-20T14:12:47;6.60;99.90
18506;DHT22;9382;53.242;10.438;2023-01-20T14:15:29;6.10;99.90
18506;DHT22;9382;53.242;10.438;2023-01-20T14:17:59;5.80;99.90
18506;DHT22;9382;53.242;10.438;2023-01-20T14:20:27;5.40;99.90
18506;DHT22;9382;53.242;10.438;2023-01-20T14:25:36;5.00;99.90
18506;DHT22;9382;53.242;10.438;2023-01-20T14:28:17;4.90;99.90
18506;DHT22;9382;53.242;10.438;2023-01-20T14:30:44;4.90;99.90
18506;DHT22;9382;53.242;10.438;2023-01-20T14:33:14;4.80;99.90
18506;DHT22;9382;53.242;10.438;2023-01-20T14:35:42;4.70;99.90
18506;DHT22;9382;53.242;10.438;2023-01-20T14:38:15;4.60;99.90
18506;DHT22;9382;53.242;10.438;2023-01-20T14:40:42;4.60;99.90
18506;DHT22;9382;53.242;10.438;2023-01-20T14:43:15;4.60;99.90
18506;DHT22;9382;53.242;10.438;2023-01-20T14:45:45;4.50;99.90
18506;DHT22;9382;53.242;10.438;2023-01-20T14:48:14;4.50;99.90
18506;DHT22;9382;53.242;10.438;2023-01-20T14:50:41;4.40;99.90
18506;DHT22;9382;53.242;10.438;2023-01-20T14:53:11;4.30;99.90
18506;DHT22;9382;53.242;10.438;2023-01-20T14:55:40;4.20;99.90
18506;DHT22;9382;53.242;10.438;2023-01-20T14:58:13;4.20;99.90
18506;DHT22;9382;53.242;10.438;2023-01-20T15:00:42;3.90;99.90
18506;DHT22;9382;53.242;10.438;2023-01-20T15:03:14;3.80;99.90
18506;DHT22;9382;53.242;10.438;2023-01-20T15:05:53;3.60;99.90
18506;DHT22;9382;53.242;10.438;2023-01-20T15:08:22;3.50;99.90
18506;DHT22;9382;53.242;10.438;2023-01-20T15:11:09;3.40;99.90
18506;DHT22;9382;53.242;10.438;2023-01-20T15:13:37;3.30;99.90
18506;DHT22;9382;53.242;10.438;2023-01-20T15:16:14;3.10;99.90
18506;DHT22;9382;53.242;10.438;2023-01-20T15:18:43;2.90;99.90
18506;DHT22;9382;53.242;10.438;2023-01-20T15:21:18;2.70;99.90
18506;DHT22;9382;53.242;10.438;2023-01-20T15:23:46;2.60;99.90
18506;DHT22;9382;53.242;10.438;2023-01-20T15:26:24;2.40;99.90
18506;DHT22;9382;53.242;10.438;2023-01-20T15:28:51;2.30;99.90
18506;DHT22;9382;53.242;10.438;2023-01-20T15:31:18;2.10;99.90
18506;DHT22;9382;53.242;10.438;2023-01-20T15:33:46;2.00;99.90
18506;DHT22;9382;53.242;10.438;2023-01-20T15:36:21;1.80;99.90
18506;DHT22;9382;53.242;10.438;2023-01-20T15:38:48;1.60;99.90
18506;DHT22;9382;53.242;10.438;2023-01-20T15:41:15;1.50;99.90
18506;DHT22;9382;53.242;10.438;2023-01-20T15:43:42;1.40;99.90
18506;DHT22;9382;53.242;10.438;2023-01-20T15:46:10;1.30;99.90
18506;DHT22;9382;53.242;10.438;2023-01-20T15:48:37;1.10;99.90
18506;DHT22;9382;53.242;10.438;2023-01-20T15:51:05;1.00;99.90
18506;DHT22;9382;53.242;10.438;2023-01-20T15:53:32;0.90;99.90
18506;DHT22;9382;53.242;10.438;2023-01-20T15:55:59;0.80;99.90
18506;DHT22;9382;53.242;10.438;2023-01-20T15:58:28;0.70;99.90
18506;DHT22;9382;53.242;10.438;2023-01-20T16:00:58;0.60;99.90
18506;DHT22;9382;53.242;10.438;2023-01-20T16:03:26;0.50;99.90
18506;DHT22;9382;53.242;10.438;2023-01-20T16:05:54;0.40;99.90
18506;DHT22;9382;53.242;10.438;2023-01-20T16:08:24;0.30;99.90
18506;DHT22;9382;53.242;10.438;2023-01-20T16:10:54;0.20;99.90
18506;DHT22;9382;53.242;10.438;2023-01-20T16:13:21;0.20;99.90
18506;DHT22;9382;53.242;10.438;2023-01-20T16:15:48;0.10;99.90
18506;DHT22;9382;53.242;10.438;2023-01-20T16:18:16;0.10;99.90